Contrarian — 2FAJ3 — position and weather

sailwx.info

Track history (hours):
 
Tides and Currents Weather Stations Pressure Air Temp Water Temp Dewpoint Dewpoint Depression Visibility Wind Speed Wind Dir Waves Ship Positions

Contrarian

Last reported at 2015-Apr-03 20:32 UTC. Time now 2015-Apr-22 03:54 UTC.
Position N 17°01' W 061°46'.
Warning: this ship's position is 18 days out of date.

Length 20 m.

Type: Sailing vessel. MMSI: 235089609.

Date/timePositionNaut miles runAvg speedWind from/ knotsBaromVisibWave heightAir tempDewpointWater temp
2015-Apr-03 20:32N 17°01' W 061°46'0 0.0
2015-Apr-03 19:32N 17°01' W 061°46'0 0.0
2015-Apr-03 18:32N 17°01' W 061°46'0 0.0
2015-Apr-03 17:32N 17°01' W 061°46'1 0.9
2015-Apr-03 16:33N 17°00' W 061°47'  
2015-Mar-31 20:29N 17°03' W 061°40'6 6.8
2015-Mar-31 19:33N 16°59' W 061°45'2 1.8
2015-Mar-31 18:31N 17°01' W 061°46'0 0.0
2015-Mar-31 17:31N 17°01' W 061°46'5 5.1
2015-Mar-31 16:29N 16°56' W 061°47'  
2015-Mar-29 11:21N 16°51' W 061°47'7 8.8
2015-Mar-29 10:33N 16°58' W 061°47'  
2015-Mar-26 15:33N 17°01' W 061°47'5 5.4
2015-Mar-26 14:33N 17°01' W 061°41'  
Track history (hours):
 
Tides and Currents Weather Stations Pressure Air Temp Water Temp Dewpoint Dewpoint Depression Visibility Wind Speed Wind Dir Waves Ship Positions

Contrarian

Last reported at 2015-Apr-03 20:32 UTC. Time now 2015-Apr-22 03:54 UTC.
Position N 17°01' W 061°46'.
Warning: this ship's position is 18 days out of date.

Length 20 m.

Type: Sailing vessel. MMSI: 235089609.

Date/timePositionNaut miles runAvg speedWind from/ knotsBaromVisibWave heightAir tempDewpointWater temp
2015-Apr-03 20:32N 17°01' W 061°46'0 0.0
2015-Apr-03 19:32N 17°01' W 061°46'0 0.0
2015-Apr-03 18:32N 17°01' W 061°46'0 0.0
2015-Apr-03 17:32N 17°01' W 061°46'1 0.9
2015-Apr-03 16:33N 17°00' W 061°47'  
2015-Mar-31 20:29N 17°03' W 061°40'6 6.8
2015-Mar-31 19:33N 16°59' W 061°45'2 1.8
2015-Mar-31 18:31N 17°01' W 061°46'0 0.0
2015-Mar-31 17:31N 17°01' W 061°46'5 5.1
2015-Mar-31 16:29N 16°56' W 061°47'  
2015-Mar-29 11:21N 16°51' W 061°47'7 8.8
2015-Mar-29 10:33N 16°58' W 061°47'  
2015-Mar-26 15:33N 17°01' W 061°47'5 5.4
2015-Mar-26 14:33N 17°01' W 061°41'  

Dump ship's entire track history